sensor_id;sensor_type;location;lat;lon;timestamp;P1;durP1;ratioP1;P2;durP2;ratioP2
22652;SDS011;11493;43.344;26.226;2024-02-23T00:02:19;19.67;;;12.85;;
22652;SDS011;11493;43.344;26.226;2024-02-23T00:04:46;20.17;;;13.45;;
22652;SDS011;11493;43.344;26.226;2024-02-23T00:07:13;18.75;;;12.20;;
22652;SDS011;11493;43.344;26.226;2024-02-23T00:09:40;23.92;;;13.48;;
22652;SDS011;11493;43.344;26.226;2024-02-23T00:12:07;20.60;;;12.75;;
22652;SDS011;11493;43.344;26.226;2024-02-23T00:14:35;21.58;;;13.93;;
22652;SDS011;11493;43.344;26.226;2024-02-23T00:17:05;28.25;;;14.73;;
22652;SDS011;11493;43.344;26.226;2024-02-23T00:19:32;33.53;;;17.15;;
22652;SDS011;11493;43.344;26.226;2024-02-23T00:21:59;36.03;;;17.02;;
22652;SDS011;11493;43.344;26.226;2024-02-23T00:24:27;33.13;;;16.40;;
22652;SDS011;11493;43.344;26.226;2024-02-23T00:26:54;22.65;;;14.18;;
22652;SDS011;11493;43.344;26.226;2024-02-23T00:29:21;23.60;;;13.02;;
22652;SDS011;11493;43.344;26.226;2024-02-23T00:31:49;22.92;;;14.10;;
22652;SDS011;11493;43.344;26.226;2024-02-23T00:34:16;41.22;;;21.20;;
22652;SDS011;11493;43.344;26.226;2024-02-23T00:36:43;35.22;;;19.15;;
22652;SDS011;11493;43.344;26.226;2024-02-23T00:39:11;27.52;;;16.85;;
22652;SDS011;11493;43.344;26.226;2024-02-23T00:41:38;29.77;;;16.92;;
22652;SDS011;11493;43.344;26.226;2024-02-23T00:44:05;32.10;;;16.95;;
22652;SDS011;11493;43.344;26.226;2024-02-23T00:46:33;24.02;;;14.82;;
22652;SDS011;11493;43.344;26.226;2024-02-23T00:49:01;28.92;;;16.13;;
22652;SDS011;11493;43.344;26.226;2024-02-23T00:51:29;23.65;;;14.77;;
22652;SDS011;11493;43.344;26.226;2024-02-23T00:53:56;45.42;;;22.50;;
22652;SDS011;11493;43.344;26.226;2024-02-23T00:56:23;34.88;;;18.88;;
22652;SDS011;11493;43.344;26.226;2024-02-23T00:59:01;33.35;;;18.10;;
22652;SDS011;11493;43.344;26.226;2024-02-23T01:01:28;26.25;;;15.43;;
22652;SDS011;11493;43.344;26.226;2024-02-23T01:03:55;19.80;;;12.68;;
22652;SDS011;11493;43.344;26.226;2024-02-23T01:06:23;20.42;;;13.15;;
22652;SDS011;11493;43.344;26.226;2024-02-23T01:08:51;23.25;;;13.75;;
22652;SDS011;11493;43.344;26.226;2024-02-23T01:11:18;22.23;;;14.15;;
22652;SDS011;11493;43.344;26.226;2024-02-23T01:13:45;21.55;;;13.95;;
22652;SDS011;11493;43.344;26.226;2024-02-23T01:16:12;23.02;;;14.90;;
22652;SDS011;11493;43.344;26.226;2024-02-23T01:18:39;25.52;;;14.82;;
22652;SDS011;11493;43.344;26.226;2024-02-23T01:21:06;22.50;;;14.15;;
22652;SDS011;11493;43.344;26.226;2024-02-23T01:23:34;24.90;;;13.75;;
22652;SDS011;11493;43.344;26.226;2024-02-23T01:26:01;23.58;;;14.38;;
22652;SDS011;11493;43.344;26.226;2024-02-23T01:28:29;24.85;;;14.60;;
22652;SDS011;11493;43.344;26.226;2024-02-23T01:30:56;30.80;;;17.40;;
22652;SDS011;11493;43.344;26.226;2024-02-23T01:33:23;25.88;;;14.70;;
22652;SDS011;11493;43.344;26.226;2024-02-23T01:35:50;22.02;;;14.23;;
22652;SDS011;11493;43.344;26.226;2024-02-23T01:38:18;23.83;;;16.02;;
22652;SDS011;11493;43.344;26.226;2024-02-23T01:40:48;19.52;;;13.68;;
22652;SDS011;11493;43.344;26.226;2024-02-23T01:43:15;19.65;;;13.45;;
22652;SDS011;11493;43.344;26.226;2024-02-23T01:45:42;18.27;;;12.88;;
22652;SDS011;11493;43.344;26.226;2024-02-23T01:48:09;19.02;;;13.73;;
22652;SDS011;11493;43.344;26.226;2024-02-23T01:50:37;23.85;;;14.73;;
22652;SDS011;11493;43.344;26.226;2024-02-23T01:53:05;15.45;;;12.00;;
22652;SDS011;11493;43.344;26.226;2024-02-23T01:55:32;18.73;;;11.98;;
22652;SDS011;11493;43.344;26.226;2024-02-23T01:58:03;13.00;;;9.50;;
22652;SDS011;11493;43.344;26.226;2024-02-23T02:00:34;21.05;;;13.65;;
22652;SDS011;11493;43.344;26.226;2024-02-23T02:03:02;22.30;;;14.05;;
22652;SDS011;11493;43.344;26.226;2024-02-23T02:05:36;24.27;;;14.80;;
22652;SDS011;11493;43.344;26.226;2024-02-23T02:08:04;29.10;;;18.20;;
22652;SDS011;11493;43.344;26.226;2024-02-23T02:10:32;32.28;;;19.10;;
22652;SDS011;11493;43.344;26.226;2024-02-23T02:13:02;35.47;;;18.75;;
22652;SDS011;11493;43.344;26.226;2024-02-23T02:15:31;27.73;;;16.92;;
22652;SDS011;11493;43.344;26.226;2024-02-23T02:17:58;27.23;;;16.77;;
22652;SDS011;11493;43.344;26.226;2024-02-23T02:20:25;32.00;;;15.63;;
22652;SDS011;11493;43.344;26.226;2024-02-23T02:22:54;34.28;;;16.88;;
22652;SDS011;11493;43.344;26.226;2024-02-23T02:25:21;26.50;;;15.32;;
22652;SDS011;11493;43.344;26.226;2024-02-23T02:27:48;29.20;;;15.32;;
22652;SDS011;11493;43.344;26.226;2024-02-23T02:30:15;29.45;;;16.38;;
22652;SDS011;11493;43.344;26.226;2024-02-23T02:32:43;27.98;;;14.35;;
22652;SDS011;11493;43.344;26.226;2024-02-23T02:35:10;23.85;;;16.25;;
22652;SDS011;11493;43.344;26.226;2024-02-23T02:37:38;24.05;;;15.82;;
22652;SDS011;11493;43.344;26.226;2024-02-23T02:40:06;27.48;;;15.82;;
22652;SDS011;11493;43.344;26.226;2024-02-23T02:42:33;32.25;;;15.80;;
22652;SDS011;11493;43.344;26.226;2024-02-23T02:45:00;23.33;;;15.23;;
22652;SDS011;11493;43.344;26.226;2024-02-23T02:47:29;21.95;;;14.15;;
22652;SDS011;11493;43.344;26.226;2024-02-23T02:49:56;24.75;;;15.82;;
22652;SDS011;11493;43.344;26.226;2024-02-23T02:52:23;28.60;;;17.17;;
22652;SDS011;11493;43.344;26.226;2024-02-23T02:54:50;24.05;;;15.52;;
22652;SDS011;11493;43.344;26.226;2024-02-23T02:57:17;21.02;;;14.38;;
22652;SDS011;11493;43.344;26.226;2024-02-23T02:59:44;27.92;;;16.55;;
22652;SDS011;11493;43.344;26.226;2024-02-23T03:02:12;23.98;;;14.93;;
22652;SDS011;11493;43.344;26.226;2024-02-23T03:04:50;25.10;;;14.73;;
22652;SDS011;11493;43.344;26.226;2024-02-23T03:07:17;20.17;;;13.27;;
22652;SDS011;11493;43.344;26.226;2024-02-23T03:09:44;19.42;;;13.20;;
22652;SDS011;11493;43.344;26.226;2024-02-23T03:12:11;16.33;;;12.23;;
22652;SDS011;11493;43.344;26.226;2024-02-23T03:14:38;20.00;;;14.07;;
22652;SDS011;11493;43.344;26.226;2024-02-23T03:17:07;22.58;;;13.77;;
22652;SDS011;11493;43.344;26.226;2024-02-23T03:19:36;18.58;;;13.60;;
22652;SDS011;11493;43.344;26.226;2024-02-23T03:22:04;21.27;;;12.85;;
22652;SDS011;11493;43.344;26.226;2024-02-23T03:24:31;18.90;;;13.38;;
22652;SDS011;11493;43.344;26.226;2024-02-23T03:26:59;20.13;;;12.18;;
22652;SDS011;11493;43.344;26.226;2024-02-23T03:29:26;19.80;;;13.10;;
22652;SDS011;11493;43.344;26.226;2024-02-23T03:31:57;23.17;;;14.57;;
22652;SDS011;11493;43.344;26.226;2024-02-23T03:34:25;19.17;;;13.23;;
22652;SDS011;11493;43.344;26.226;2024-02-23T03:36:52;22.77;;;14.10;;
22652;SDS011;11493;43.344;26.226;2024-02-23T03:39:19;21.55;;;13.80;;
22652;SDS011;11493;43.344;26.226;2024-02-23T03:41:46;20.00;;;13.05;;
22652;SDS011;11493;43.344;26.226;2024-02-23T03:44:13;21.88;;;13.32;;
22652;SDS011;11493;43.344;26.226;2024-02-23T03:46:40;23.98;;;14.00;;
22652;SDS011;11493;43.344;26.226;2024-02-23T03:49:07;25.80;;;19.42;;
22652;SDS011;11493;43.344;26.226;2024-02-23T03:51:34;29.13;;;19.90;;
22652;SDS011;11493;43.344;26.226;2024-02-23T03:54:03;30.85;;;20.75;;
22652;SDS011;11493;43.344;26.226;2024-02-23T03:56:30;30.10;;;19.00;;
22652;SDS011;11493;43.344;26.226;2024-02-23T03:59:04;26.00;;;18.85;;
22652;SDS011;11493;43.344;26.226;2024-02-23T04:01:31;28.50;;;19.00;;
22652;SDS011;11493;43.344;26.226;2024-02-23T04:03:59;31.33;;;21.77;;
22652;SDS011;11493;43.344;26.226;2024-02-23T04:06:29;31.52;;;21.55;;
22652;SDS011;11493;43.344;26.226;2024-02-23T04:08:56;26.67;;;19.15;;
22652;SDS011;11493;43.344;26.226;2024-02-23T04:11:23;26.48;;;17.13;;
22652;SDS011;11493;43.344;26.226;2024-02-23T04:13:50;25.05;;;15.82;;
22652;SDS011;11493;43.344;26.226;2024-02-23T04:16:21;23.48;;;14.05;;
22652;SDS011;11493;43.344;26.226;2024-02-23T04:18:50;21.83;;;14.05;;
22652;SDS011;11493;43.344;26.226;2024-02-23T04:21:18;18.35;;;13.63;;
22652;SDS011;11493;43.344;26.226;2024-02-23T04:23:44;24.77;;;16.58;;
22652;SDS011;11493;43.344;26.226;2024-02-23T04:26:12;35.83;;;18.15;;
22652;SDS011;11493;43.344;26.226;2024-02-23T04:28:40;32.38;;;19.73;;
22652;SDS011;11493;43.344;26.226;2024-02-23T04:31:08;26.17;;;16.10;;
22652;SDS011;11493;43.344;26.226;2024-02-23T04:33:36;25.98;;;15.27;;
22652;SDS011;11493;43.344;26.226;2024-02-23T04:36:04;18.90;;;12.70;;
22652;SDS011;11493;43.344;26.226;2024-02-23T04:38:33;20.40;;;12.93;;
22652;SDS011;11493;43.344;26.226;2024-02-23T04:41:04;17.48;;;12.40;;
22652;SDS011;11493;43.344;26.226;2024-02-23T04:43:34;22.67;;;12.75;;
22652;SDS011;11493;43.344;26.226;2024-02-23T04:46:01;21.23;;;12.40;;
22652;SDS011;11493;43.344;26.226;2024-02-23T04:48:28;19.15;;;12.80;;
22652;SDS011;11493;43.344;26.226;2024-02-23T04:50:57;23.08;;;14.52;;
22652;SDS011;11493;43.344;26.226;2024-02-23T04:53:24;23.67;;;15.68;;
22652;SDS011;11493;43.344;26.226;2024-02-23T04:55:52;23.52;;;14.98;;
22652;SDS011;11493;43.344;26.226;2024-02-23T04:58:19;25.63;;;16.00;;
22652;SDS011;11493;43.344;26.226;2024-02-23T05:00:47;26.77;;;16.25;;
22652;SDS011;11493;43.344;26.226;2024-02-23T05:03:14;25.20;;;15.52;;
22652;SDS011;11493;43.344;26.226;2024-02-23T05:05:42;27.02;;;15.40;;
22652;SDS011;11493;43.344;26.226;2024-02-23T05:08:09;24.42;;;16.20;;
22652;SDS011;11493;43.344;26.226;2024-02-23T05:10:39;20.92;;;13.70;;
22652;SDS011;11493;43.344;26.226;2024-02-23T05:13:09;22.98;;;14.10;;
22652;SDS011;11493;43.344;26.226;2024-02-23T05:15:36;20.63;;;13.52;;
22652;SDS011;11493;43.344;26.226;2024-02-23T05:18:03;24.13;;;14.73;;
22652;SDS011;11493;43.344;26.226;2024-02-23T05:20:33;25.38;;;14.45;;
22652;SDS011;11493;43.344;26.226;2024-02-23T05:23:00;49.03;;;22.40;;
22652;SDS011;11493;43.344;26.226;2024-02-23T05:25:30;29.85;;;17.45;;
22652;SDS011;11493;43.344;26.226;2024-02-23T05:27:57;25.10;;;15.25;;
22652;SDS011;11493;43.344;26.226;2024-02-23T05:30:24;33.90;;;17.77;;
22652;SDS011;11493;43.344;26.226;2024-02-23T05:32:56;44.38;;;24.20;;
22652;SDS011;11493;43.344;26.226;2024-02-23T05:35:24;48.42;;;25.65;;
22652;SDS011;11493;43.344;26.226;2024-02-23T05:37:51;47.10;;;27.73;;
22652;SDS011;11493;43.344;26.226;2024-02-23T05:40:18;43.60;;;24.45;;
22652;SDS011;11493;43.344;26.226;2024-02-23T05:42:49;54.30;;;33.05;;
22652;SDS011;11493;43.344;26.226;2024-02-23T05:45:17;61.80;;;35.17;;
22652;SDS011;11493;43.344;26.226;2024-02-23T05:47:44;41.17;;;24.75;;
22652;SDS011;11493;43.344;26.226;2024-02-23T05:50:14;49.63;;;29.23;;
22652;SDS011;11493;43.344;26.226;2024-02-23T05:52:41;51.92;;;23.38;;
22652;SDS011;11493;43.344;26.226;2024-02-23T05:55:09;41.15;;;23.73;;
22652;SDS011;11493;43.344;26.226;2024-02-23T05:57:36;36.63;;;22.55;;
22652;SDS011;11493;43.344;26.226;2024-02-23T06:00:04;36.55;;;19.63;;
22652;SDS011;11493;43.344;26.226;2024-02-23T06:02:37;34.47;;;21.90;;
22652;SDS011;11493;43.344;26.226;2024-02-23T06:05:04;32.72;;;19.70;;
22652;SDS011;11493;43.344;26.226;2024-02-23T06:07:34;40.20;;;21.25;;
22652;SDS011;11493;43.344;26.226;2024-02-23T06:10:04;31.13;;;18.55;;
22652;SDS011;11493;43.344;26.226;2024-02-23T06:12:32;23.83;;;16.20;;
22652;SDS011;11493;43.344;26.226;2024-02-23T06:14:59;26.67;;;15.88;;
22652;SDS011;11493;43.344;26.226;2024-02-23T06:17:26;22.15;;;15.27;;
22652;SDS011;11493;43.344;26.226;2024-02-23T06:19:54;23.10;;;14.52;;
22652;SDS011;11493;43.344;26.226;2024-02-23T06:22:26;28.67;;;17.45;;
22652;SDS011;11493;43.344;26.226;2024-02-23T06:24:54;29.10;;;17.83;;
22652;SDS011;11493;43.344;26.226;2024-02-23T06:27:21;24.90;;;16.05;;
22652;SDS011;11493;43.344;26.226;2024-02-23T06:29:48;24.70;;;16.70;;
22652;SDS011;11493;43.344;26.226;2024-02-23T06:32:16;26.85;;;16.83;;
22652;SDS011;11493;43.344;26.226;2024-02-23T06:34:46;27.55;;;17.63;;
22652;SDS011;11493;43.344;26.226;2024-02-23T06:37:13;27.20;;;18.17;;
22652;SDS011;11493;43.344;26.226;2024-02-23T06:39:41;29.80;;;19.33;;
22652;SDS011;11493;43.344;26.226;2024-02-23T06:42:08;31.40;;;18.17;;
22652;SDS011;11493;43.344;26.226;2024-02-23T06:44:35;25.48;;;17.08;;
22652;SDS011;11493;43.344;26.226;2024-02-23T06:47:03;32.90;;;15.52;;
22652;SDS011;11493;43.344;26.226;2024-02-23T06:49:32;21.00;;;15.43;;
22652;SDS011;11493;43.344;26.226;2024-02-23T06:52:00;21.45;;;14.18;;
22652;SDS011;11493;43.344;26.226;2024-02-23T06:54:27;28.73;;;18.27;;
22652;SDS011;11493;43.344;26.226;2024-02-23T06:56:58;24.90;;;17.10;;
22652;SDS011;11493;43.344;26.226;2024-02-23T06:59:31;27.38;;;15.70;;
22652;SDS011;11493;43.344;26.226;2024-02-23T07:01:59;20.33;;;15.13;;
22652;SDS011;11493;43.344;26.226;2024-02-23T07:04:26;20.48;;;14.98;;
22652;SDS011;11493;43.344;26.226;2024-02-23T07:06:55;22.27;;;15.20;;
22652;SDS011;11493;43.344;26.226;2024-02-23T07:09:25;20.60;;;14.75;;
22652;SDS011;11493;43.344;26.226;2024-02-23T07:11:55;25.88;;;15.65;;
22652;SDS011;11493;43.344;26.226;2024-02-23T07:14:25;41.03;;;18.23;;
22652;SDS011;11493;43.344;26.226;2024-02-23T07:16:52;41.63;;;25.10;;
22652;SDS011;11493;43.344;26.226;2024-02-23T07:19:19;38.35;;;22.63;;
22652;SDS011;11493;43.344;26.226;2024-02-23T07:21:47;45.00;;;23.00;;
22652;SDS011;11493;43.344;26.226;2024-02-23T07:24:14;63.58;;;28.17;;
22652;SDS011;11493;43.344;26.226;2024-02-23T07:26:41;62.97;;;27.27;;
22652;SDS011;11493;43.344;26.226;2024-02-23T07:29:09;65.20;;;36.47;;
22652;SDS011;11493;43.344;26.226;2024-02-23T07:31:36;59.25;;;26.30;;
22652;SDS011;11493;43.344;26.226;2024-02-23T07:34:03;55.05;;;26.63;;
22652;SDS011;11493;43.344;26.226;2024-02-23T07:36:30;56.28;;;26.05;;
22652;SDS011;11493;43.344;26.226;2024-02-23T07:38:58;73.30;;;27.35;;
22652;SDS011;11493;43.344;26.226;2024-02-23T07:41:25;56.97;;;26.52;;
22652;SDS011;11493;43.344;26.226;2024-02-23T07:43:53;51.13;;;24.67;;
22652;SDS011;11493;43.344;26.226;2024-02-23T07:46:20;43.67;;;20.88;;
22652;SDS011;11493;43.344;26.226;2024-02-23T07:48:56;52.70;;;22.77;;
22652;SDS011;11493;43.344;26.226;2024-02-23T07:51:23;34.85;;;20.90;;
22652;SDS011;11493;43.344;26.226;2024-02-23T07:53:50;39.45;;;18.83;;
22652;SDS011;11493;43.344;26.226;2024-02-23T07:56:17;34.95;;;18.13;;
22652;SDS011;11493;43.344;26.226;2024-02-23T07:58:44;24.90;;;15.32;;
22652;SDS011;11493;43.344;26.226;2024-02-23T08:01:12;24.80;;;15.93;;
22652;SDS011;11493;43.344;26.226;2024-02-23T08:03:41;34.38;;;18.13;;
22652;SDS011;11493;43.344;26.226;2024-02-23T08:06:11;28.08;;;18.00;;
22652;SDS011;11493;43.344;26.226;2024-02-23T08:08:40;30.63;;;14.75;;
22652;SDS011;11493;43.344;26.226;2024-02-23T08:11:07;27.40;;;16.25;;
22652;SDS011;11493;43.344;26.226;2024-02-23T08:13:35;19.63;;;11.95;;
22652;SDS011;11493;43.344;26.226;2024-02-23T08:16:02;20.95;;;13.35;;
22652;SDS011;11493;43.344;26.226;2024-02-23T08:18:30;21.70;;;13.40;;
22652;SDS011;11493;43.344;26.226;2024-02-23T08:20:58;16.23;;;13.40;;
22652;SDS011;11493;43.344;26.226;2024-02-23T08:23:25;24.13;;;13.85;;
22652;SDS011;11493;43.344;26.226;2024-02-23T08:25:52;14.73;;;11.63;;
22652;SDS011;11493;43.344;26.226;2024-02-23T08:28:20;23.90;;;11.30;;
22652;SDS011;11493;43.344;26.226;2024-02-23T08:30:47;23.48;;;11.75;;
22652;SDS011;11493;43.344;26.226;2024-02-23T08:33:15;18.90;;;11.20;;
22652;SDS011;11493;43.344;26.226;2024-02-23T08:35:42;18.88;;;10.70;;
22652;SDS011;11493;43.344;26.226;2024-02-23T08:38:11;14.68;;;9.43;;
22652;SDS011;11493;43.344;26.226;2024-02-23T08:40:39;15.27;;;9.75;;
22652;SDS011;11493;43.344;26.226;2024-02-23T08:43:06;12.98;;;9.65;;
22652;SDS011;11493;43.344;26.226;2024-02-23T08:45:33;13.93;;;9.35;;
22652;SDS011;11493;43.344;26.226;2024-02-23T08:48:01;11.88;;;9.38;;
22652;SDS011;11493;43.344;26.226;2024-02-23T08:50:31;18.40;;;9.73;;
22652;SDS011;11493;43.344;26.226;2024-02-23T08:52:58;13.10;;;9.75;;
22652;SDS011;11493;43.344;26.226;2024-02-23T08:55:25;19.83;;;11.57;;
22652;SDS011;11493;43.344;26.226;2024-02-23T08:57:55;11.93;;;8.15;;
22652;SDS011;11493;43.344;26.226;2024-02-23T09:00:22;10.85;;;9.18;;
22652;SDS011;11493;43.344;26.226;2024-02-23T09:02:51;10.52;;;9.40;;
22652;SDS011;11493;43.344;26.226;2024-02-23T09:05:18;15.63;;;8.18;;
22652;SDS011;11493;43.344;26.226;2024-02-23T09:07:46;9.68;;;7.72;;
22652;SDS011;11493;43.344;26.226;2024-02-23T09:10:16;9.55;;;7.95;;
22652;SDS011;11493;43.344;26.226;2024-02-23T09:12:49;12.63;;;7.63;;
22652;SDS011;11493;43.344;26.226;2024-02-23T09:15:17;10.07;;;7.93;;
22652;SDS011;11493;43.344;26.226;2024-02-23T09:17:44;10.40;;;7.90;;
22652;SDS011;11493;43.344;26.226;2024-02-23T09:20:11;8.82;;;8.00;;
22652;SDS011;11493;43.344;26.226;2024-02-23T09:22:39;11.25;;;6.97;;
22652;SDS011;11493;43.344;26.226;2024-02-23T09:25:06;13.70;;;8.20;;
22652;SDS011;11493;43.344;26.226;2024-02-23T09:27:35;10.30;;;7.93;;
22652;SDS011;11493;43.344;26.226;2024-02-23T09:30:05;9.35;;;7.05;;
22652;SDS011;11493;43.344;26.226;2024-02-23T09:32:33;7.88;;;6.75;;
22652;SDS011;11493;43.344;26.226;2024-02-23T09:35:00;9.68;;;7.25;;
22652;SDS011;11493;43.344;26.226;2024-02-23T09:37:28;7.60;;;6.50;;
22652;SDS011;11493;43.344;26.226;2024-02-23T09:39:55;7.80;;;6.32;;
22652;SDS011;11493;43.344;26.226;2024-02-23T09:42:23;7.07;;;6.28;;
22652;SDS011;11493;43.344;26.226;2024-02-23T09:45:00;4.32;;;3.92;;
22652;SDS011;11493;43.344;26.226;2024-02-23T09:47:28;8.05;;;4.15;;
22652;SDS011;11493;43.344;26.226;2024-02-23T09:49:56;5.00;;;4.50;;
22652;SDS011;11493;43.344;26.226;2024-02-23T09:52:23;5.38;;;4.88;;
22652;SDS011;11493;43.344;26.226;2024-02-23T09:54:50;5.35;;;4.78;;
22652;SDS011;11493;43.344;26.226;2024-02-23T09:57:18;4.68;;;4.28;;
22652;SDS011;11493;43.344;26.226;2024-02-23T09:59:46;5.85;;;5.35;;
22652;SDS011;11493;43.344;26.226;2024-02-23T10:02:16;5.50;;;5.00;;
22652;SDS011;11493;43.344;26.226;2024-02-23T10:04:43;5.85;;;5.25;;
22652;SDS011;11493;43.344;26.226;2024-02-23T10:07:14;8.88;;;7.28;;
22652;SDS011;11493;43.344;26.226;2024-02-23T10:09:45;8.20;;;6.18;;
22652;SDS011;11493;43.344;26.226;2024-02-23T10:12:12;7.93;;;5.85;;
22652;SDS011;11493;43.344;26.226;2024-02-23T10:14:41;8.05;;;5.22;;
22652;SDS011;11493;43.344;26.226;2024-02-23T10:19:56;5.93;;;5.40;;
22652;SDS011;11493;43.344;26.226;2024-02-23T10:22:31;7.07;;;5.50;;
22652;SDS011;11493;43.344;26.226;2024-02-23T10:24:59;6.50;;;5.25;;
22652;SDS011;11493;43.344;26.226;2024-02-23T10:27:26;5.82;;;5.32;;
22652;SDS011;11493;43.344;26.226;2024-02-23T10:29:54;5.68;;;5.18;;
22652;SDS011;11493;43.344;26.226;2024-02-23T10:32:22;6.82;;;5.40;;
22652;SDS011;11493;43.344;26.226;2024-02-23T10:34:51;5.63;;;5.13;;
22652;SDS011;11493;43.344;26.226;2024-02-23T10:37:20;8.45;;;5.60;;
22652;SDS011;11493;43.344;26.226;2024-02-23T10:39:49;6.72;;;5.25;;
22652;SDS011;11493;43.344;26.226;2024-02-23T10:42:22;6.72;;;5.15;;
22652;SDS011;11493;43.344;26.226;2024-02-23T10:44:51;7.22;;;5.65;;
22652;SDS011;11493;43.344;26.226;2024-02-23T10:47:19;7.07;;;5.43;;
22652;SDS011;11493;43.344;26.226;2024-02-23T10:49:51;6.55;;;5.28;;
22652;SDS011;11493;43.344;26.226;2024-02-23T10:52:19;5.70;;;5.20;;
22652;SDS011;11493;43.344;26.226;2024-02-23T10:54:50;5.20;;;4.70;;
22652;SDS011;11493;43.344;26.226;2024-02-23T10:59:51;8.43;;;5.57;;
22652;SDS011;11493;43.344;26.226;2024-02-23T11:02:19;5.97;;;5.38;;
22652;SDS011;11493;43.344;26.226;2024-02-23T11:04:49;6.90;;;5.30;;
22652;SDS011;11493;43.344;26.226;2024-02-23T11:07:21;4.78;;;4.15;;
22652;SDS011;11493;43.344;26.226;2024-02-23T11:09:51;6.47;;;5.65;;
22652;SDS011;11493;43.344;26.226;2024-02-23T11:12:23;5.40;;;4.90;;
22652;SDS011;11493;43.344;26.226;2024-02-23T11:14:51;13.13;;;5.28;;
22652;SDS011;11493;43.344;26.226;2024-02-23T11:17:22;10.35;;;6.95;;
22652;SDS011;11493;43.344;26.226;2024-02-23T11:19:53;6.30;;;4.68;;
22652;SDS011;11493;43.344;26.226;2024-02-23T11:22:31;5.38;;;4.95;;
22652;SDS011;11493;43.344;26.226;2024-02-23T11:25:05;5.18;;;4.78;;
22652;SDS011;11493;43.344;26.226;2024-02-23T11:27:37;9.30;;;6.57;;
22652;SDS011;11493;43.344;26.226;2024-02-23T11:30:07;11.35;;;7.88;;
22652;SDS011;11493;43.344;26.226;2024-02-23T11:35:11;5.70;;;4.65;;
22652;SDS011;11493;43.344;26.226;2024-02-23T11:37:46;4.10;;;3.80;;
22652;SDS011;11493;43.344;26.226;2024-02-23T11:40:15;18.23;;;5.30;;
22652;SDS011;11493;43.344;26.226;2024-02-23T11:42:47;5.68;;;4.93;;
22652;SDS011;11493;43.344;26.226;2024-02-23T11:45:14;5.97;;;5.03;;
22652;SDS011;11493;43.344;26.226;2024-02-23T11:47:42;6.45;;;5.25;;
22652;SDS011;11493;43.344;26.226;2024-02-23T11:50:09;5.85;;;5.22;;
22652;SDS011;11493;43.344;26.226;2024-02-23T11:52:37;8.10;;;5.93;;
22652;SDS011;11493;43.344;26.226;2024-02-23T11:55:08;5.05;;;4.32;;
22652;SDS011;11493;43.344;26.226;2024-02-23T11:57:35;5.00;;;4.50;;
22652;SDS011;11493;43.344;26.226;2024-02-23T12:00:13;19.30;;;9.82;;
22652;SDS011;11493;43.344;26.226;2024-02-23T12:02:43;7.80;;;4.95;;
22652;SDS011;11493;43.344;26.226;2024-02-23T12:05:13;6.70;;;5.13;;
22652;SDS011;11493;43.344;26.226;2024-02-23T12:07:43;7.17;;;6.57;;
22652;SDS011;11493;43.344;26.226;2024-02-23T12:10:13;6.07;;;4.65;;
22652;SDS011;11493;43.344;26.226;2024-02-23T12:12:41;4.60;;;4.20;;
22652;SDS011;11493;43.344;26.226;2024-02-23T12:15:11;5.22;;;4.72;;
22652;SDS011;11493;43.344;26.226;2024-02-23T12:17:46;4.43;;;3.85;;
22652;SDS011;11493;43.344;26.226;2024-02-23T12:20:16;7.60;;;3.70;;
22652;SDS011;11493;43.344;26.226;2024-02-23T12:22:44;3.55;;;3.20;;
22652;SDS011;11493;43.344;26.226;2024-02-23T12:25:12;10.20;;;4.40;;
22652;SDS011;11493;43.344;26.226;2024-02-23T12:27:40;5.28;;;4.00;;
22652;SDS011;11493;43.344;26.226;2024-02-23T12:30:17;2.65;;;2.30;;
22652;SDS011;11493;43.344;26.226;2024-02-23T12:32:47;3.00;;;2.70;;
22652;SDS011;11493;43.344;26.226;2024-02-23T12:35:15;3.08;;;2.85;;
22652;SDS011;11493;43.344;26.226;2024-02-23T12:37:43;4.50;;;2.95;;
22652;SDS011;11493;43.344;26.226;2024-02-23T12:40:12;4.78;;;2.65;;
22652;SDS011;11493;43.344;26.226;2024-02-23T12:42:39;3.05;;;2.67;;
22652;SDS011;11493;43.344;26.226;2024-02-23T12:45:10;3.58;;;2.72;;
22652;SDS011;11493;43.344;26.226;2024-02-23T12:47:37;3.78;;;3.03;;
22652;SDS011;11493;43.344;26.226;2024-02-23T12:50:06;3.15;;;2.47;;
22652;SDS011;11493;43.344;26.226;2024-02-23T12:52:34;3.42;;;3.13;;
22652;SDS011;11493;43.344;26.226;2024-02-23T12:55:01;3.67;;;2.63;;
22652;SDS011;11493;43.344;26.226;2024-02-23T12:57:32;3.72;;;2.35;;
22652;SDS011;11493;43.344;26.226;2024-02-23T12:59:59;6.25;;;3.10;;
22652;SDS011;11493;43.344;26.226;2024-02-23T13:02:26;3.63;;;3.08;;
22652;SDS011;11493;43.344;26.226;2024-02-23T13:04:53;5.40;;;2.22;;
22652;SDS011;11493;43.344;26.226;2024-02-23T13:07:22;5.95;;;2.30;;
22652;SDS011;11493;43.344;26.226;2024-02-23T13:09:50;2.80;;;2.05;;
22652;SDS011;11493;43.344;26.226;2024-02-23T13:12:20;2.67;;;2.47;;
22652;SDS011;11493;43.344;26.226;2024-02-23T13:14:48;2.83;;;2.58;;
22652;SDS011;11493;43.344;26.226;2024-02-23T13:17:15;2.60;;;2.40;;
22652;SDS011;11493;43.344;26.226;2024-02-23T13:19:43;4.68;;;2.45;;
22652;SDS011;11493;43.344;26.226;2024-02-23T13:22:26;2.53;;;2.15;;
22652;SDS011;11493;43.344;26.226;2024-02-23T13:24:55;4.18;;;2.10;;
22652;SDS011;11493;43.344;26.226;2024-02-23T13:27:22;3.45;;;2.67;;
22652;SDS011;11493;43.344;26.226;2024-02-23T13:29:50;7.00;;;2.20;;
22652;SDS011;11493;43.344;26.226;2024-02-23T13:32:17;2.80;;;2.50;;
22652;SDS011;11493;43.344;26.226;2024-02-23T13:34:47;2.90;;;2.53;;
22652;SDS011;11493;43.344;26.226;2024-02-23T13:39:45;5.68;;;2.25;;
22652;SDS011;11493;43.344;26.226;2024-02-23T13:42:15;2.72;;;2.40;;
22652;SDS011;11493;43.344;26.226;2024-02-23T13:44:44;3.08;;;2.63;;
22652;SDS011;11493;43.344;26.226;2024-02-23T13:47:13;2.92;;;2.55;;
22652;SDS011;11493;43.344;26.226;2024-02-23T13:49:43;8.93;;;2.42;;
22652;SDS011;11493;43.344;26.226;2024-02-23T13:52:10;13.18;;;3.50;;
22652;SDS011;11493;43.344;26.226;2024-02-23T13:54:37;4.50;;;2.85;;
22652;SDS011;11493;43.344;26.226;2024-02-23T13:57:04;7.47;;;3.10;;
22652;SDS011;11493;43.344;26.226;2024-02-23T13:59:31;4.97;;;2.67;;
22652;SDS011;11493;43.344;26.226;2024-02-23T14:01:58;3.38;;;2.65;;
22652;SDS011;11493;43.344;26.226;2024-02-23T14:04:26;4.28;;;2.40;;
22652;SDS011;11493;43.344;26.226;2024-02-23T14:06:56;5.90;;;3.28;;
22652;SDS011;11493;43.344;26.226;2024-02-23T14:09:23;2.78;;;2.50;;
22652;SDS011;11493;43.344;26.226;2024-02-23T14:11:50;6.68;;;3.50;;
22652;SDS011;11493;43.344;26.226;2024-02-23T14:14:20;3.45;;;2.63;;
22652;SDS011;11493;43.344;26.226;2024-02-23T14:16:48;3.13;;;2.72;;
22652;SDS011;11493;43.344;26.226;2024-02-23T14:19:15;3.10;;;2.80;;
22652;SDS011;11493;43.344;26.226;2024-02-23T14:21:42;3.47;;;3.13;;
22652;SDS011;11493;43.344;26.226;2024-02-23T14:24:10;4.38;;;2.33;;
22652;SDS011;11493;43.344;26.226;2024-02-23T14:26:37;3.30;;;2.80;;
22652;SDS011;11493;43.344;26.226;2024-02-23T14:29:04;2.72;;;2.13;;
22652;SDS011;11493;43.344;26.226;2024-02-23T14:31:31;4.25;;;2.83;;
22652;SDS011;11493;43.344;26.226;2024-02-23T14:33:59;10.73;;;2.83;;
22652;SDS011;11493;43.344;26.226;2024-02-23T14:36:26;25.65;;;3.42;;